Time;durP1;ratioP1;P1;durP2;ratioP2;P2;SDS_P1;SDS_P2;PMS_P1;PMS_P2;Temp;Humidity;BMP_temperature;BMP_pressure;BME280_temperature;BME280_humidity;BME280_pressure;Samples;Min_cycle;Max_cycle;Signal;HPM_P1;HPM_P2
2021/03/30 00:00:54;;;;;;;9.00;7.32;;;10.20;79.00;;;;;;2034983;29;20034;-76
2021/03/30 00:01:55;;;;;;;10.90;5.60;;;10.20;79.30;;;;;;2028105;29;20106;-76
2021/03/30 00:02:55;;;;;;;7.30;5.47;;;10.20;79.20;;;;;;2027471;29;20491;-76
2021/03/30 00:03:56;;;;;;;8.77;5.43;;;10.20;78.60;;;;;;2027993;29;20075;-76
2021/03/30 00:04:56;;;;;;;10.93;6.43;;;10.20;78.40;;;;;;2028789;29;20039;-76
2021/03/30 00:05:57;;;;;;;9.43;6.03;;;10.20;79.90;;;;;;2028800;29;20036;-76
2021/03/30 00:06:57;;;;;;;8.13;6.00;;;10.20;79.50;;;;;;2026191;29;20491;-76
2021/03/30 00:07:58;;;;;;;10.90;6.30;;;10.10;79.60;;;;;;2026057;29;20035;-76
2021/03/30 00:08:59;;;;;;;8.43;5.53;;;10.10;80.60;;;;;;2021339;29;20025;-76
2021/03/30 00:09:59;;;;;;;7.32;5.22;;;10.10;79.80;;;;;;2027202;29;21029;-76
2021/03/30 00:11:00;;;;;;;14.68;7.18;;;10.10;79.30;;;;;;2027697;29;20118;-76
2021/03/30 00:12:02;;;;;;;6.43;5.55;;;10.10;80.00;;;;;;2035668;29;20111;-76
2021/03/30 00:13:03;;;;;;;7.60;5.30;;;10.10;79.30;;;;;;2035758;29;20027;-76
2021/03/30 00:14:04;;;;;;;7.85;5.70;;;10.10;79.00;;;;;;2028338;29;20108;-76
2021/03/30 00:15:07;;;;;;;9.23;6.30;;;10.10;79.20;;;;;;2028773;29;20379;-76
2021/03/30 00:16:07;;;;;;;7.97;6.35;;;10.10;80.20;;;;;;2032880;29;20067;-77
2021/03/30 00:17:08;;;;;;;10.88;6.72;;;10.00;79.60;;;;;;2036278;29;20043;-76
2021/03/30 00:18:09;;;;;;;6.07;4.60;;;10.00;79.60;;;;;;2025992;29;20432;-76
2021/03/30 00:19:09;;;;;;;6.95;5.65;;;10.00;79.00;;;;;;2026016;29;20028;-76
2021/03/30 00:20:11;;;;;;;9.27;6.90;;;10.00;78.90;;;;;;2036259;29;20028;-76
2021/03/30 00:21:12;;;;;;;12.90;7.75;;;10.00;79.50;;;;;;2029839;29;20111;-76
2021/03/30 00:22:14;;;;;;;10.50;6.28;;;10.00;80.00;;;;;;2029151;29;20103;-76
2021/03/30 00:23:14;;;;;;;7.70;6.88;;;10.00;79.50;;;;;;2023879;29;20032;-76
2021/03/30 00:24:15;;;;;;;11.13;6.78;;;10.00;79.80;;;;;;2027905;29;20139;-76
2021/03/30 00:25:16;;;;;;;11.48;6.72;;;10.00;80.30;;;;;;2021541;29;20124;-76
2021/03/30 00:26:16;;;;;;;7.05;6.00;;;10.00;80.70;;;;;;2024021;29;20032;-76
2021/03/30 00:27:17;;;;;;;9.57;7.25;;;10.00;80.70;;;;;;2026661;29;20035;-76
2021/03/30 00:28:17;;;;;;;9.70;6.38;;;9.90;81.50;;;;;;2032354;29;20051;-76
2021/03/30 00:29:18;;;;;;;9.43;6.53;;;9.90;81.20;;;;;;2030888;29;20039;-76
2021/03/30 00:30:19;;;;;;;10.55;7.60;;;9.90;81.00;;;;;;2030322;29;20028;-76
2021/03/30 00:31:20;;;;;;;10.35;6.45;;;9.90;81.60;;;;;;2027608;29;20024;-76
2021/03/30 00:32:20;;;;;;;8.48;5.43;;;9.80;80.60;;;;;;2031670;29;20024;-77
2021/03/30 00:33:21;;;;;;;8.10;6.65;;;9.80;80.50;;;;;;2033429;29;20079;-76
2021/03/30 00:34:21;;;;;;;10.85;7.07;;;9.80;80.90;;;;;;2024378;29;20424;-76
2021/03/30 00:35:22;;;;;;;14.60;7.30;;;9.80;81.00;;;;;;2022536;29;20029;-76
2021/03/30 00:36:23;;;;;;;9.95;7.10;;;9.80;81.70;;;;;;2029707;29;20441;-76
2021/03/30 00:37:23;;;;;;;11.73;8.18;;;9.80;81.90;;;;;;2025010;29;20059;-77
2021/03/30 00:38:24;;;;;;;9.70;5.72;;;9.80;82.50;;;;;;2019397;29;20428;-76
2021/03/30 00:39:24;;;;;;;6.93;5.88;;;9.80;81.70;;;;;;2016087;29;20038;-76
2021/03/30 00:40:25;;;;;;;13.60;7.88;;;9.70;82.20;;;;;;2025216;29;20109;-76
2021/03/30 00:41:26;;;;;;;10.52;7.40;;;9.80;82.30;;;;;;2037871;29;20628;-76
2021/03/30 00:42:26;;;;;;;11.60;8.50;;;9.70;83.00;;;;;;2030210;29;20033;-76
2021/03/30 00:43:29;;;;;;;9.25;6.18;;;9.70;83.80;;;;;;2027504;29;20033;-76
2021/03/30 00:44:30;;;;;;;11.13;7.50;;;9.70;83.00;;;;;;2037959;29;20024;-76
2021/03/30 00:45:31;;;;;;;10.05;7.88;;;9.70;83.20;;;;;;2024678;29;20028;-76
2021/03/30 00:46:31;;;;;;;9.52;6.10;;;9.70;83.60;;;;;;2030178;29;20473;-77
2021/03/30 00:47:33;;;;;;;8.77;6.60;;;9.70;82.60;;;;;;2023921;29;20029;-76
2021/03/30 00:48:34;;;;;;;9.68;5.80;;;9.70;82.60;;;;;;2026986;29;20104;-76
2021/03/30 00:49:35;;;;;;;9.77;7.20;;;9.70;82.70;;;;;;2030258;29;20024;-76
2021/03/30 00:50:36;;;;;;;10.98;7.10;;;9.70;83.60;;;;;;2025008;29;20017;-76
2021/03/30 00:51:36;;;;;;;10.88;6.50;;;9.60;83.20;;;;;;2036649;29;20507;-76
2021/03/30 00:52:38;;;;;;;9.65;6.78;;;9.60;82.80;;;;;;2032521;29;20067;-76
2021/03/30 00:53:39;;;;;;;11.70;7.20;;;9.60;83.60;;;;;;2027001;29;20638;-76
2021/03/30 00:54:39;;;;;;;10.40;7.13;;;9.60;84.40;;;;;;2025530;29;20039;-76
2021/03/30 00:55:40;;;;;;;8.85;6.45;;;9.60;84.50;;;;;;2025142;29;20031;-76
2021/03/30 00:56:42;;;;;;;10.57;7.80;;;9.60;83.80;;;;;;2029172;29;20084;-76
2021/03/30 00:57:44;;;;;;;9.90;7.90;;;9.60;85.00;;;;;;2025917;29;20524;-76
2021/03/30 00:58:46;;;;;;;7.82;6.15;;;9.50;85.30;;;;;;2034289;29;20059;-76
2021/03/30 00:59:46;;;;;;;8.93;6.85;;;9.50;84.00;;;;;;2034553;29;20020;-76
2021/03/30 01:00:47;;;;;;;11.30;6.63;;;9.50;85.40;;;;;;2023235;29;20109;-76
2021/03/30 01:01:47;;;;;;;11.07;7.32;;;9.50;85.20;;;;;;2020702;29;20094;-76
2021/03/30 01:02:48;;;;;;;12.90;8.02;;;9.50;84.80;;;;;;2023398;29;20029;-76
2021/03/30 01:03:49;;;;;;;9.18;7.07;;;9.40;86.10;;;;;;2025602;29;20028;-76
2021/03/30 01:04:49;;;;;;;11.10;6.75;;;9.40;86.20;;;;;;2033843;29;20028;-76
2021/03/30 01:05:50;;;;;;;11.55;7.95;;;9.50;85.20;;;;;;2026399;29;20085;-76
2021/03/30 01:06:51;;;;;;;13.10;8.80;;;9.40;86.60;;;;;;2031776;29;20816;-76
2021/03/30 01:08:10;;;;;;;7.93;6.45;;;9.40;87.30;;;;;;2031232;29;20118;-76
2021/03/30 01:09:14;;;;;;;11.93;7.10;;;9.40;89.00;;;;;;2029484;29;20035;-76
2021/03/30 01:10:39;;;;;;;10.07;7.93;;;9.30;85.70;;;;;;2036650;29;20440;-76
2021/03/30 01:11:52;;;;;;;8.48;6.30;;;9.40;86.50;;;;;;2025260;29;20100;-76
2021/03/30 01:13:33;;;;;;;8.57;7.30;;;9.30;86.30;;;;;;2035838;29;20069;-76
2021/03/30 01:14:52;;;;;;;9.15;7.15;;;9.30;87.00;;;;;;1999838;29;20383;-76
2021/03/30 01:16:02;;;;;;;8.27;7.15;;;9.20;90.20;;;;;;2001452;29;20094;-76
2021/03/30 01:17:15;;;;;;;;;;;9.20;87.90;;;;;;2007020;29;20033;-76
2021/03/30 01:18:32;;;;;;;9.68;6.70;;;9.10;91.70;;;;;;1999574;29;20007;-76
2021/03/30 01:19:50;;;;;;;11.13;7.97;;;9.10;88.70;;;;;;1999795;29;20034;-76
2021/03/30 01:21:18;;;;;;;12.73;8.38;;;9.10;89.70;;;;;;2024458;29;20443;-76
2021/03/30 01:22:37;;;;;;;13.93;8.07;;;9.00;91.90;;;;;;2030290;29;20116;-76
2021/03/30 01:23:57;;;;;;;9.85;7.40;;;9.00;89.90;;;;;;2017835;29;21187;-76
2021/03/30 01:25:00;;;;;;;10.00;7.03;;;9.00;90.80;;;;;;2022004;29;20032;-76
2021/03/30 01:26:25;;;;;;;13.25;8.73;;;9.00;90.10;;;;;;2019376;29;20486;-76
2021/03/30 01:27:52;;;;;;;11.20;8.60;;;9.00;92.30;;;;;;2025060;29;20055;-76
2021/03/30 01:29:13;;;;;;;9.27;7.40;;;9.00;93.20;;;;;;2026248;29;20036;-76
2021/03/30 01:30:16;;;;;;;13.52;8.98;;;9.00;92.40;;;;;;2035952;29;20022;-76
2021/03/30 01:31:17;;;;;;;10.68;7.60;;;8.90;91.50;;;;;;2037197;29;20459;-76
2021/03/30 01:32:33;;;;;;;9.93;8.25;;;8.90;90.70;;;;;;2035315;29;20148;-76
2021/03/30 01:33:36;;;;;;;13.60;7.93;;;8.90;92.20;;;;;;2023210;29;20025;-76
2021/03/30 01:34:39;;;;;;;13.00;9.02;;;8.90;91.60;;;;;;2023903;29;20233;-76
2021/03/30 01:35:41;;;;;;;14.70;9.68;;;8.90;91.80;;;;;;2019137;29;20032;-76
2021/03/30 01:36:44;;;;;;;12.63;9.15;;;9.00;92.10;;;;;;2022814;29;20078;-76
2021/03/30 01:37:47;;;;;;;18.33;10.63;;;8.90;92.50;;;;;;2028585;29;20219;-76
2021/03/30 01:38:48;;;;;;;16.00;10.73;;;8.90;92.70;;;;;;2024617;29;20491;-77
2021/03/30 01:39:55;;;;;;;16.35;10.13;;;8.90;92.70;;;;;;2022067;29;20447;-76
2021/03/30 01:40:58;;;;;;;10.60;7.72;;;8.90;92.90;;;;;;2028926;29;20552;-76
2021/03/30 01:41:59;;;;;;;13.77;9.40;;;8.90;92.30;;;;;;2028587;29;20024;-76
2021/03/30 01:43:02;;;;;;;15.95;8.57;;;8.90;92.40;;;;;;2026311;29;20044;-76
2021/03/30 01:44:05;;;;;;;14.02;10.00;;;8.90;92.50;;;;;;2029614;29;20028;-76
2021/03/30 01:45:08;;;;;;;11.68;9.02;;;8.90;93.10;;;;;;2034057;29;20039;-76
2021/03/30 01:46:09;;;;;;;16.92;10.25;;;8.90;93.20;;;;;;2032137;29;20036;-76
2021/03/30 01:47:09;;;;;;;14.52;10.52;;;8.90;93.00;;;;;;2025692;29;20152;-76
2021/03/30 01:48:12;;;;;;;16.40;10.88;;;8.90;92.70;;;;;;2037725;29;20020;-76
2021/03/30 01:49:15;;;;;;;16.13;10.27;;;8.90;93.00;;;;;;2038183;29;20490;-77
2021/03/30 01:50:16;;;;;;;16.50;10.90;;;8.90;93.00;;;;;;2025897;29;20024;-76
2021/03/30 01:51:17;;;;;;;13.07;10.00;;;8.90;93.10;;;;;;2031666;29;20460;-76
2021/03/30 01:52:19;;;;;;;17.70;10.48;;;8.90;93.30;;;;;;2024744;29;20079;-76
2021/03/30 01:53:22;;;;;;;15.35;10.40;;;9.00;93.20;;;;;;2021478;29;20021;-76
2021/03/30 01:54:25;;;;;;;18.55;10.82;;;8.90;93.50;;;;;;2025529;29;20035;-77
2021/03/30 01:55:27;;;;;;;20.58;11.30;;;8.90;93.50;;;;;;2024455;29;20029;-76
2021/03/30 01:56:30;;;;;;;14.55;11.32;;;8.90;93.60;;;;;;2019371;29;20029;-76
2021/03/30 01:57:31;;;;;;;15.48;10.88;;;8.90;93.70;;;;;;2023586;29;20025;-76
2021/03/30 01:58:32;;;;;;;13.77;10.23;;;8.90;93.70;;;;;;2033167;29;20024;-76
2021/03/30 01:59:34;;;;;;;19.63;10.63;;;8.90;93.80;;;;;;2032872;29;20028;-76
2021/03/30 02:00:37;;;;;;;14.93;11.18;;;9.00;93.80;;;;;;2028229;29;20047;-77
2021/03/30 02:01:39;;;;;;;13.93;10.93;;;9.00;94.00;;;;;;2035149;29;20059;-77
2021/03/30 02:02:45;;;;;;;17.55;10.77;;;9.00;93.90;;;;;;2040552;29;20032;-76
2021/03/30 02:03:46;;;;;;;15.70;11.48;;;8.90;94.20;;;;;;2027748;29;20385;-76
2021/03/30 02:04:49;;;;;;;16.92;11.10;;;8.90;94.40;;;;;;2024645;29;20137;-76
2021/03/30 02:05:50;;;;;;;22.00;11.35;;;9.00;94.30;;;;;;2036872;29;20027;-77
2021/03/30 02:06:51;;;;;;;17.42;11.48;;;8.90;94.00;;;;;;2032981;29;20055;-76
2021/03/30 02:07:54;;;;;;;22.48;11.00;;;8.90;94.10;;;;;;2033338;29;20435;-76
2021/03/30 02:08:58;;;;;;;17.40;11.48;;;9.00;94.20;;;;;;2026641;29;20858;-76
2021/03/30 02:10:03;;;;;;;15.07;10.45;;;9.00;94.30;;;;;;2031767;29;20035;-76
2021/03/30 02:11:04;;;;;;;20.50;11.48;;;8.90;94.40;;;;;;2026672;29;20020;-76
2021/03/30 02:12:16;;;;;;;15.57;11.13;;;8.90;94.40;;;;;;2027793;29;20033;-76
2021/03/30 02:13:29;;;;;;;14.73;10.20;;;8.90;94.50;;;;;;2027179;29;20052;-76
2021/03/30 02:14:32;;;;;;;16.35;10.68;;;8.90;94.50;;;;;;2027546;29;20024;-76
2021/03/30 02:15:32;;;;;;;21.52;11.93;;;8.90;94.40;;;;;;2031779;29;20017;-76
2021/03/30 02:16:44;;;;;;;10.13;7.93;;;8.90;94.40;;;;;;2028084;29;20095;-76
2021/03/30 02:18:03;;;;;;;17.83;10.27;;;8.90;94.10;;;;;;2024702;29;21832;-76
2021/03/30 02:19:11;;;;;;;15.25;11.45;;;9.00;94.80;;;;;;2028153;29;20032;-76
2021/03/30 02:20:19;;;;;;;17.60;11.07;;;8.90;94.70;;;;;;2037507;29;20024;-76
2021/03/30 02:21:28;;;;;;;14.48;11.05;;;8.90;94.80;;;;;;2026750;29;20111;-77
2021/03/30 02:22:35;;;;;;;18.27;12.02;;;8.90;94.70;;;;;;2015992;29;21579;-76
2021/03/30 02:23:39;;;;;;;15.77;11.60;;;8.90;95.00;;;;;;2031873;29;20036;-76
2021/03/30 02:24:42;;;;;;;15.15;11.27;;;8.90;94.50;;;;;;2034564;29;20036;-76
2021/03/30 02:25:47;;;;;;;15.10;10.45;;;9.00;94.60;;;;;;2031372;29;20503;-76
2021/03/30 02:26:49;;;;;;;14.85;10.55;;;8.90;94.90;;;;;;2020390;29;20036;-76
2021/03/30 02:27:54;;;;;;;16.15;10.10;;;9.00;94.40;;;;;;2028514;29;20071;-76
2021/03/30 02:28:58;;;;;;;18.35;12.65;;;8.90;94.40;;;;;;2029034;29;20021;-76
2021/03/30 02:30:01;;;;;;;12.77;9.65;;;8.90;94.40;;;;;;2030424;29;20099;-76
2021/03/30 02:31:04;;;;;;;18.60;11.40;;;8.90;94.30;;;;;;2036256;29;20028;-76
2021/03/30 02:32:08;;;;;;;15.23;10.82;;;8.90;94.60;;;;;;2036923;29;20393;-76
2021/03/30 02:33:13;;;;;;;18.48;12.35;;;8.90;94.90;;;;;;2031303;29;20035;-76
2021/03/30 02:34:15;;;;;;;13.90;11.57;;;8.90;95.00;;;;;;2024729;29;20024;-76
2021/03/30 02:35:19;;;;;;;13.82;11.35;;;8.90;95.00;;;;;;2032619;29;20025;-76
2021/03/30 02:36:22;;;;;;;16.48;10.73;;;8.90;95.30;;;;;;2033782;29;20028;-76
2021/03/30 02:37:24;;;;;;;16.85;10.73;;;8.90;95.30;;;;;;2028665;29;20036;-76
2021/03/30 02:38:25;;;;;;;17.00;11.02;;;8.90;95.10;;;;;;2017614;29;20104;-76
2021/03/30 02:39:27;;;;;;;16.33;11.70;;;8.90;95.10;;;;;;2028354;29;20031;-76
2021/03/30 02:40:28;;;;;;;16.70;10.63;;;8.90;95.30;;;;;;2036163;29;20036;-76
2021/03/30 02:41:30;;;;;;;13.65;10.73;;;8.90;95.30;;;;;;2028263;29;20084;-76
2021/03/30 02:42:31;;;;;;;14.70;11.32;;;8.90;94.90;;;;;;2031153;29;20151;-76
2021/03/30 02:43:34;;;;;;;17.60;11.35;;;8.80;95.20;;;;;;2033651;29;20039;-76
2021/03/30 02:44:36;;;;;;;17.65;10.90;;;8.80;95.40;;;;;;2031272;29;20056;-76
2021/03/30 02:45:37;;;;;;;15.10;11.40;;;8.80;95.40;;;;;;2036896;29;20044;-76
2021/03/30 02:46:39;;;;;;;17.08;11.35;;;8.80;95.20;;;;;;2035937;29;20028;-76
2021/03/30 02:47:43;;;;;;;15.18;10.77;;;8.90;95.30;;;;;;2027622;29;20059;-76
2021/03/30 02:48:44;;;;;;;17.75;11.63;;;8.80;95.30;;;;;;2035018;29;20373;-76
2021/03/30 02:49:45;;;;;;;17.88;11.10;;;8.80;95.20;;;;;;2039330;29;20039;-76
2021/03/30 02:50:48;;;;;;;15.13;10.15;;;8.80;95.80;;;;;;2029814;29;20111;-76
2021/03/30 02:51:51;;;;;;;15.40;10.90;;;8.80;95.40;;;;;;2023669;29;20020;-76
2021/03/30 02:52:53;;;;;;;16.25;11.27;;;8.80;95.50;;;;;;2023030;29;20020;-76
2021/03/30 02:53:55;;;;;;;17.45;11.13;;;8.80;95.50;;;;;;2029563;29;20031;-76
2021/03/30 02:54:57;;;;;;;15.90;11.00;;;8.80;95.50;;;;;;2029391;29;20106;-76
2021/03/30 02:55:59;;;;;;;17.95;12.07;;;8.80;95.60;;;;;;2026741;29;20132;-76
2021/03/30 02:57:00;;;;;;;17.80;12.93;;;8.70;96.10;;;;;;2029834;29;20071;-76
2021/03/30 02:58:04;;;;;;;19.67;11.55;;;8.80;96.10;;;;;;2035730;29;20137;-76
2021/03/30 02:59:05;;;;;;;13.65;10.05;;;8.80;96.60;;;;;;2037625;29;20024;-76
2021/03/30 03:00:10;;;;;;;16.52;10.40;;;8.70;95.60;;;;;;2027427;29;20487;-76
2021/03/30 03:01:14;;;;;;;16.10;11.55;;;8.70;95.80;;;;;;2026446;29;20065;-76
2021/03/30 03:02:15;;;;;;;15.10;11.20;;;8.70;95.90;;;;;;2031055;29;20480;-76
2021/03/30 03:03:17;;;;;;;14.25;10.07;;;8.70;96.10;;;;;;2029017;29;20678;-76
2021/03/30 03:04:18;;;;;;;15.63;11.43;;;8.70;95.70;;;;;;2031734;29;20047;-76
2021/03/30 03:05:19;;;;;;;11.35;8.85;;;8.70;96.40;;;;;;2028152;29;20059;-76
2021/03/30 03:06:20;;;;;;;18.40;11.73;;;8.70;95.10;;;;;;2028877;29;20056;-76
2021/03/30 03:07:21;;;;;;;15.98;11.27;;;8.70;95.60;;;;;;2031083;29;20020;-76
2021/03/30 03:08:22;;;;;;;17.40;11.68;;;8.70;95.90;;;;;;2024848;29;20116;-76
2021/03/30 03:09:24;;;;;;;17.00;11.73;;;8.70;95.90;;;;;;2035725;29;20649;-76
2021/03/30 03:10:25;;;;;;;20.35;11.68;;;8.70;96.20;;;;;;2028983;29;20032;-76
2021/03/30 03:11:28;;;;;;;17.77;11.98;;;8.70;95.90;;;;;;2025068;29;20024;-77
2021/03/30 03:12:31;;;;;;;17.42;12.50;;;8.70;96.20;;;;;;2017905;29;20036;-76
2021/03/30 03:13:32;;;;;;;13.25;10.15;;;8.70;96.40;;;;;;2021138;29;20536;-76
2021/03/30 03:14:36;;;;;;;15.90;11.75;;;8.60;95.80;;;;;;2030175;29;20025;-76
2021/03/30 03:15:38;;;;;;;17.42;12.23;;;8.70;96.30;;;;;;2028037;29;20052;-76
2021/03/30 03:16:40;;;;;;;12.93;9.73;;;8.60;96.70;;;;;;2026603;29;20697;-76
2021/03/30 03:17:42;;;;;;;17.13;11.88;;;8.60;96.00;;;;;;2031122;29;20031;-76
2021/03/30 03:18:44;;;;;;;16.52;10.90;;;8.60;96.40;;;;;;2031126;29;20024;-76
2021/03/30 03:19:46;;;;;;;17.88;11.52;;;8.60;96.40;;;;;;2026554;29;20070;-76
2021/03/30 03:20:47;;;;;;;18.42;11.00;;;8.60;96.70;;;;;;2027537;29;20383;-76
2021/03/30 03:21:49;;;;;;;12.93;9.77;;;8.60;96.60;;;;;;2033941;29;20023;-76
2021/03/30 03:22:50;;;;;;;14.90;11.65;;;8.60;96.40;;;;;;2034761;29;20028;-76
2021/03/30 03:23:51;;;;;;;19.25;11.55;;;8.60;96.70;;;;;;2031361;29;20024;-76
2021/03/30 03:24:52;;;;;;;16.10;11.23;;;8.60;96.70;;;;;;2034065;29;20047;-76
2021/03/30 03:25:53;;;;;;;16.30;10.88;;;8.60;96.60;;;;;;2020427;29;20021;-76
2021/03/30 03:26:54;;;;;;;16.55;11.45;;;8.60;96.40;;;;;;2026864;29;20035;-76
2021/03/30 03:27:54;;;;;;;16.67;11.05;;;8.60;96.50;;;;;;2029970;29;20032;-76
2021/03/30 03:28:55;;;;;;;14.98;11.88;;;8.60;96.40;;;;;;2023473;29;20076;-76
2021/03/30 03:29:56;;;;;;;15.23;11.55;;;8.50;96.70;;;;;;2030640;29;20031;-76
2021/03/30 03:30:57;;;;;;;17.58;11.90;;;8.50;96.90;;;;;;2037450;29;20526;-76
2021/03/30 03:31:58;;;;;;;19.15;13.05;;;8.50;96.90;;;;;;2034969;29;20032;-76
2021/03/30 03:33:09;;;;;;;16.25;11.50;;;8.50;97.20;;;;;;2027246;29;20175;-76
2021/03/30 03:34:11;;;;;;;19.92;12.63;;;8.50;97.40;;;;;;2025809;29;20029;-76
2021/03/30 03:35:13;;;;;;;12.85;9.27;;;8.50;97.40;;;;;;2030482;29;20020;-76
2021/03/30 03:36:13;;;;;;;15.82;11.57;;;8.50;96.20;;;;;;2029409;29;20028;-76
2021/03/30 03:37:14;;;;;;;13.65;8.63;;;8.40;96.80;;;;;;2026908;29;20064;-77
2021/03/30 03:38:15;;;;;;;19.90;12.45;;;8.40;95.70;;;;;;2037690;29;20020;-76
2021/03/30 03:39:18;;;;;;;16.48;12.27;;;8.40;96.40;;;;;;2031143;29;20107;-76
2021/03/30 03:40:19;;;;;;;17.75;11.68;;;8.40;96.80;;;;;;2036510;29;20034;-76
2021/03/30 03:41:22;;;;;;;15.30;12.07;;;8.40;97.40;;;;;;2038003;29;20034;-76
2021/03/30 03:42:22;;;;;;;14.85;10.85;;;8.40;97.30;;;;;;2023697;29;20041;-76
2021/03/30 03:43:23;;;;;;;15.88;10.77;;;8.40;97.30;;;;;;2031059;29;20504;-76
2021/03/30 03:44:29;;;;;;;13.90;10.98;;;8.40;97.00;;;;;;2021294;29;20150;-76
2021/03/30 03:45:30;;;;;;;15.60;10.95;;;8.40;97.10;;;;;;2017411;29;20541;-76
2021/03/30 03:46:31;;;;;;;17.70;12.13;;;8.30;96.60;;;;;;2023460;29;20421;-76
2021/03/30 03:47:32;;;;;;;19.48;12.50;;;8.30;97.10;;;;;;2021597;29;20024;-76
2021/03/30 03:48:32;;;;;;;17.05;9.90;;;8.30;97.30;;;;;;2030608;29;20024;-76
2021/03/30 03:49:33;;;;;;;16.23;10.25;;;8.30;96.50;;;;;;2026738;29;20032;-76
2021/03/30 03:50:33;;;;;;;17.70;11.63;;;8.30;96.50;;;;;;2024602;29;20119;-76
2021/03/30 03:51:42;;;;;;;16.63;12.35;;;8.30;96.70;;;;;;2024602;29;20103;-76
2021/03/30 03:52:50;;;;;;;18.35;12.30;;;8.30;97.50;;;;;;2022276;29;20026;-76
2021/03/30 03:53:53;;;;;;;16.25;12.55;;;8.30;97.90;;;;;;2028081;29;20028;-76
2021/03/30 03:54:57;;;;;;;15.30;11.15;;;8.30;97.60;;;;;;2026828;29;20457;-76
2021/03/30 03:55:58;;;;;;;17.80;11.93;;;8.30;97.60;;;;;;2022573;29;20047;-76
2021/03/30 03:57:31;;;;;;;16.08;11.45;;;8.30;97.60;;;;;;2026136;29;20035;-76
2021/03/30 03:58:36;;;;;;;15.98;11.45;;;8.20;98.70;;;;;;2020888;29;20040;-76
2021/03/30 03:59:39;;;;;;;18.13;11.65;;;8.20;97.80;;;;;;2028974;29;20028;-76
2021/03/30 04:00:41;;;;;;;17.23;11.25;;;8.20;97.60;;;;;;2020319;29;20025;-76
2021/03/30 04:01:55;;;;;;;17.08;11.73;;;8.20;97.60;;;;;;2026733;29;20033;-77
2021/03/30 04:03:08;;;;;;;17.38;11.65;;;8.20;98.40;;;;;;2034780;29;20032;-76
2021/03/30 04:04:22;;;;;;;15.95;9.55;;;8.20;98.60;;;;;;2035620;29;20570;-76
2021/03/30 04:05:34;;;;;;;19.30;12.18;;;8.10;97.30;;;;;;2026868;29;20027;-76
2021/03/30 04:06:44;;;;;;;17.10;11.52;;;8.10;97.60;;;;;;2022848;29;20036;-76
2021/03/30 04:08:04;;;;;;;;;;;8.10;97.60;;;;;;2027031;29;20024;-76
2021/03/30 04:09:09;;;;;;;17.02;11.88;;;8.00;99.90;;;;;;2028653;29;20348;-76
2021/03/30 04:10:11;;;;;;;18.10;11.88;;;8.00;97.70;;;;;;2027360;29;20044;-76
2021/03/30 04:11:11;;;;;;;20.50;12.27;;;8.00;97.70;;;;;;2032783;29;20027;-76
2021/03/30 04:12:13;;;;;;;15.30;10.57;;;8.00;97.70;;;;;;2029881;29;20027;-76
2021/03/30 04:13:18;;;;;;;22.65;12.48;;;8.00;97.60;;;;;;2027406;29;20071;-76
2021/03/30 04:14:20;;;;;;;20.08;12.45;;;8.00;97.70;;;;;;2036078;29;20034;-76
2021/03/30 04:15:23;;;;;;;16.13;11.13;;;8.00;98.00;;;;;;2026709;29;20017;-76
2021/03/30 04:16:25;;;;;;;14.65;10.15;;;8.00;97.40;;;;;;2021741;29;20088;-76
2021/03/30 04:17:26;;;;;;;16.08;11.40;;;8.00;97.00;;;;;;2025901;29;20072;-76
2021/03/30 04:18:26;;;;;;;22.50;12.90;;;8.00;97.40;;;;;;2029778;29;20388;-76
2021/03/30 04:19:27;;;;;;;16.35;11.30;;;8.00;97.70;;;;;;2025165;29;20127;-76
2021/03/30 04:20:28;;;;;;;17.20;10.77;;;8.00;97.60;;;;;;2028300;29;20088;-76
2021/03/30 04:21:34;;;;;;;20.75;13.27;;;8.00;97.60;;;;;;2020298;29;20342;-76
2021/03/30 04:22:36;;;;;;;14.68;11.13;;;8.00;98.30;;;;;;2024623;29;20036;-76
2021/03/30 04:23:43;;;;;;;16.17;11.95;;;7.90;98.00;;;;;;2029868;29;20035;-76
2021/03/30 04:24:45;;;;;;;22.70;12.68;;;7.90;98.00;;;;;;2024808;29;20484;-76
2021/03/30 04:25:47;;;;;;;15.57;9.73;;;7.90;98.20;;;;;;2026288;29;20083;-76
2021/03/30 04:26:48;;;;;;;13.80;10.10;;;7.90;97.30;;;;;;2025717;29;20031;-76
2021/03/30 04:27:49;;;;;;;17.25;11.15;;;7.90;97.10;;;;;;2031200;29;20048;-76
2021/03/30 04:28:49;;;;;;;16.95;12.35;;;7.90;97.60;;;;;;2024103;29;20029;-77
2021/03/30 04:29:50;;;;;;;20.58;13.07;;;7.90;97.80;;;;;;2027237;29;20024;-76
2021/03/30 04:30:50;;;;;;;17.92;12.02;;;7.90;97.90;;;;;;2025950;29;20381;-76
2021/03/30 04:31:51;;;;;;;11.85;8.73;;;7.90;97.90;;;;;;2027452;29;20047;-76
2021/03/30 04:32:52;;;;;;;15.80;11.13;;;7.90;96.60;;;;;;2026993;29;20417;-76
2021/03/30 04:33:53;;;;;;;18.30;11.18;;;7.80;96.50;;;;;;2027673;29;20338;-76
2021/03/30 04:34:56;;;;;;;15.70;10.30;;;7.80;96.40;;;;;;2021502;29;20354;-76
2021/03/30 04:35:57;;;;;;;13.73;10.02;;;7.80;96.10;;;;;;2021141;29;20067;-76
2021/03/30 04:36:57;;;;;;;16.83;11.88;;;7.80;95.90;;;;;;2027327;29;20035;-76
2021/03/30 04:37:58;;;;;;;13.70;9.77;;;7.80;96.60;;;;;;2027316;29;20036;-76
2021/03/30 04:38:58;;;;;;;12.57;8.95;;;7.80;96.10;;;;;;2023451;29;20028;-76
2021/03/30 04:39:59;;;;;;;14.13;9.15;;;7.80;95.60;;;;;;2035318;29;20043;-76
2021/03/30 04:41:00;;;;;;;13.73;9.38;;;7.80;95.50;;;;;;2036562;29;20030;-76
2021/03/30 04:42:03;;;;;;;13.80;8.90;;;7.80;95.30;;;;;;2026492;29;20080;-76
2021/03/30 04:43:03;;;;;;;16.35;10.82;;;7.70;95.20;;;;;;2023357;29;20028;-76
2021/03/30 04:44:04;;;;;;;18.63;11.65;;;7.70;95.50;;;;;;2023120;29;20388;-76
2021/03/30 04:45:06;;;;;;;18.10;11.73;;;7.70;96.00;;;;;;2029947;29;20452;-76
2021/03/30 04:46:08;;;;;;;16.15;10.65;;;7.70;96.70;;;;;;2030149;29;20065;-77
2021/03/30 04:47:11;;;;;;;14.95;11.07;;;7.70;96.60;;;;;;2024259;29;20061;-76
2021/03/30 04:48:12;;;;;;;13.82;10.15;;;7.70;96.60;;;;;;2034031;29;20404;-76
2021/03/30 04:49:12;;;;;;;14.80;10.35;;;7.70;95.80;;;;;;2031241;29;20024;-78
2021/03/30 04:50:13;;;;;;;13.60;10.02;;;7.70;96.80;;;;;;2031870;29;20020;-76
2021/03/30 04:51:14;;;;;;;12.90;8.73;;;7.60;96.50;;;;;;2036503;29;20028;-76
2021/03/30 04:52:15;;;;;;;15.80;10.25;;;7.70;95.80;;;;;;2032062;29;20028;-76
2021/03/30 04:53:15;;;;;;;13.73;10.32;;;7.60;95.70;;;;;;2031970;29;20141;-76
2021/03/30 04:54:16;;;;;;;12.43;8.43;;;7.60;95.80;;;;;;2023679;29;20064;-76
2021/03/30 04:55:16;;;;;;;13.90;10.50;;;7.60;95.60;;;;;;2019504;29;20053;-76
2021/03/30 04:56:17;;;;;;;13.20;10.20;;;7.60;95.50;;;;;;2029856;29;20028;-78
2021/03/30 04:57:18;;;;;;;16.25;10.98;;;7.60;95.40;;;;;;2036148;29;20388;-78
2021/03/30 04:58:19;;;;;;;16.52;10.18;;;7.50;95.50;;;;;;2025414;29;20095;-76
2021/03/30 04:59:20;;;;;;;12.68;9.85;;;7.50;96.00;;;;;;2033657;29;20024;-76
2021/03/30 05:00:21;;;;;;;16.13;10.98;;;7.50;96.10;;;;;;2025763;29;20748;-76
2021/03/30 05:01:21;;;;;;;14.18;10.00;;;7.50;96.10;;;;;;2023307;29;20108;-77
2021/03/30 05:02:22;;;;;;;19.40;11.48;;;7.50;96.10;;;;;;2029720;29;20469;-76
2021/03/30 05:03:22;;;;;;;14.52;10.45;;;7.50;96.70;;;;;;2025258;29;20096;-76
2021/03/30 05:04:23;;;;;;;16.15;10.57;;;7.50;96.00;;;;;;2035912;29;20028;-78
2021/03/30 05:05:23;;;;;;;13.73;10.50;;;7.50;96.20;;;;;;2035482;29;20054;-76
2021/03/30 05:06:24;;;;;;;23.00;12.55;;;7.50;96.20;;;;;;2021229;29;20040;-76
2021/03/30 05:07:24;;;;;;;16.63;11.90;;;7.50;97.20;;;;;;2023243;29;20029;-76
2021/03/30 05:08:25;;;;;;;15.35;10.88;;;7.40;97.00;;;;;;2028163;29;20125;-76
2021/03/30 05:09:26;;;;;;;19.88;10.38;;;7.40;96.80;;;;;;2031725;29;20076;-76
2021/03/30 05:10:27;;;;;;;17.00;10.68;;;7.40;96.40;;;;;;2027169;29;20025;-76
2021/03/30 05:11:27;;;;;;;14.77;10.23;;;7.40;96.10;;;;;;2028851;29;20060;-76
2021/03/30 05:12:28;;;;;;;14.05;10.25;;;7.40;95.90;;;;;;2024733;29;20025;-76
2021/03/30 05:13:28;;;;;;;12.88;9.98;;;7.40;96.30;;;;;;2025850;29;20064;-76
2021/03/30 05:14:29;;;;;;;15.60;9.43;;;7.40;96.40;;;;;;2031470;29;20157;-77
2021/03/30 05:15:29;;;;;;;13.35;9.65;;;7.40;95.90;;;;;;2026252;29;20039;-76
2021/03/30 05:16:30;;;;;;;13.25;9.07;;;7.40;95.50;;;;;;2032538;29;20056;-76
2021/03/30 05:17:30;;;;;;;15.65;10.45;;;7.40;95.40;;;;;;2031557;29;20028;-78
2021/03/30 05:18:31;;;;;;;15.63;10.27;;;7.40;95.70;;;;;;2033587;29;20441;-78
2021/03/30 05:19:32;;;;;;;15.15;10.43;;;7.40;96.20;;;;;;2031676;29;20044;-78
2021/03/30 05:20:32;;;;;;;15.02;10.10;;;7.40;96.20;;;;;;2027991;29;20032;-78
2021/03/30 05:21:33;;;;;;;14.07;9.82;;;7.30;96.30;;;;;;2024687;29;20096;-78
2021/03/30 05:22:33;;;;;;;14.75;10.27;;;7.30;95.90;;;;;;2025511;29;20036;-78
2021/03/30 05:23:34;;;;;;;13.88;10.38;;;7.30;95.90;;;;;;2026059;29;20468;-78
2021/03/30 05:24:35;;;;;;;15.48;10.73;;;7.30;95.80;;;;;;2024416;29;20029;-77
2021/03/30 05:25:36;;;;;;;15.20;10.82;;;7.30;95.70;;;;;;2026347;29;20465;-78
2021/03/30 05:26:37;;;;;;;15.27;10.70;;;7.30;96.00;;;;;;2021852;29;20056;-78